DLH487 EDDM-EPWA
Flight info
| Callsign | DLH487 |
|---|---|
| Flight time | N/A |
| Altitude | 35000 |
| Route | BIBAG3W BIBAG Y133 BEPAS DCT LEGAZ DCT LAGAR DCT OKENO DCT GOGUS DCT AGAVA |
| Aircraft | A321/M-SDE3FGHIRWY/LB1 |
Departure
| Time | 2026-05-07 17:28 |
|---|---|
| Airport | Munich Airport (EDDM) |
Arrival
| Time | N/A |
|---|---|
| Airport | Warsaw Chopin Airport (EPWA) |
| Time | Latitude | Longitude | Altitude | Speed | Heading |
|---|---|---|---|---|---|
| 2026-05-07 16:47 | 48.35337 | 11.80006 | 1486 ft | 0 kts | 263° |
| 2026-05-07 17:04 | 48.35339 | 11.80020 | 1474 ft | 4 kts | 263° |
| 2026-05-07 17:05 | 48.35342 | 11.80061 | 1475 ft | 4 kts | 263° |
| 2026-05-07 17:05 | 48.35345 | 11.80100 | 1475 ft | 4 kts | 263° |
| 2026-05-07 17:05 | 48.35348 | 11.80133 | 1477 ft | 3 kts | 262° |
| 2026-05-07 17:05 | 48.35355 | 11.80170 | 1479 ft | 4 kts | 229° |
| 2026-05-07 17:06 | 48.35376 | 11.80188 | 1476 ft | 4 kts | 179° |
| 2026-05-07 17:06 | 48.35400 | 11.80185 | 1479 ft | 3 kts | 173° |
| 2026-05-07 17:06 | 48.35404 | 11.80184 | 1481 ft | 0 kts | 173° |
| 2026-05-07 17:10 | 48.35400 | 11.80185 | 1475 ft | 1 kts | 173° |
| 2026-05-07 17:10 | 48.35384 | 11.80188 | 1485 ft | 3 kts | 173° |
| 2026-05-07 17:10 | 48.35355 | 11.80193 | 1476 ft | 6 kts | 174° |
| 2026-05-07 17:10 | 48.35290 | 11.80204 | 1480 ft | 11 kts | 173° |
| 2026-05-07 17:11 | 48.35209 | 11.80219 | 1472 ft | 12 kts | 173° |
| 2026-05-07 17:11 | 48.35142 | 11.80171 | 1473 ft | 12 kts | 242° |
| 2026-05-07 17:11 | 48.35128 | 11.80044 | 1482 ft | 13 kts | 263° |
| 2026-05-07 17:11 | 48.35117 | 11.79903 | 1485 ft | 14 kts | 263° |
| 2026-05-07 17:12 | 48.35104 | 11.79748 | 1485 ft | 15 kts | 262° |
| 2026-05-07 17:12 | 48.35069 | 11.79664 | 1479 ft | 8 kts | 198° |
| 2026-05-07 17:12 | 48.35008 | 11.79657 | 1479 ft | 9 kts | 162° |
| 2026-05-07 17:12 | 48.34941 | 11.79678 | 1477 ft | 10 kts | 172° |
| 2026-05-07 17:13 | 48.34901 | 11.79685 | 1483 ft | 6 kts | 173° |
| 2026-05-07 17:13 | 48.34895 | 11.79686 | 1482 ft | 0 kts | 173° |
| 2026-05-07 17:15 | 48.34874 | 11.79690 | 1474 ft | 11 kts | 173° |
| 2026-05-07 17:16 | 48.34808 | 11.79777 | 1481 ft | 15 kts | 89° |
| 2026-05-07 17:16 | 48.34821 | 11.79949 | 1485 ft | 21 kts | 83° |
| 2026-05-07 17:16 | 48.34805 | 11.80171 | 1471 ft | 19 kts | 122° |
| 2026-05-07 17:16 | 48.34725 | 11.80243 | 1483 ft | 9 kts | 173° |
| 2026-05-07 17:17 | 48.34721 | 11.80244 | 1480 ft | 0 kts | 173° |
| 2026-05-07 17:18 | 48.34713 | 11.80245 | 1483 ft | 0 kts | 173° |
| 2026-05-07 17:19 | 48.34709 | 11.80246 | 1485 ft | 2 kts | 173° |
| 2026-05-07 17:19 | 48.34677 | 11.80251 | 1477 ft | 7 kts | 173° |
| 2026-05-07 17:19 | 48.34661 | 11.80254 | 1482 ft | 0 kts | 173° |
| 2026-05-07 17:21 | 48.34655 | 11.80255 | 1483 ft | 2 kts | 174° |
| 2026-05-07 17:22 | 48.34640 | 11.80258 | 1485 ft | 0 kts | 174° |
| 2026-05-07 17:23 | 48.34639 | 11.80258 | 1485 ft | 1 kts | 174° |
| 2026-05-07 17:24 | 48.34620 | 11.80261 | 1473 ft | 6 kts | 173° |
| 2026-05-07 17:24 | 48.34582 | 11.80267 | 1484 ft | 0 kts | 172° |
| 2026-05-07 17:26 | 48.34566 | 11.80270 | 1475 ft | 7 kts | 173° |
| 2026-05-07 17:26 | 48.34481 | 11.80246 | 1481 ft | 16 kts | 221° |
| 2026-05-07 17:27 | 48.34456 | 11.80136 | 1485 ft | 0 kts | 263° |
| 2026-05-07 17:27 | 48.34456 | 11.80132 | 1485 ft | 2 kts | 263° |
| 2026-05-07 17:28 | 48.34438 | 11.79908 | 1482 ft | 57 kts | 263° |
| 2026-05-07 17:28 | 48.34364 | 11.78945 | 1475 ft | 126 kts | 263° |
| 2026-05-07 17:28 | 48.34241 | 11.77348 | 1492 ft | 178 kts | 264° |
| 2026-05-07 17:28 | 48.34100 | 11.75464 | 2117 ft | 180 kts | 267° |
| 2026-05-07 17:29 | 48.33972 | 11.73594 | 2966 ft | 179 kts | 267° |
| 2026-05-07 17:29 | 48.33634 | 11.71735 | 3361 ft | 201 kts | 239° |
| 2026-05-07 17:29 | 48.32429 | 11.70491 | 3584 ft | 225 kts | 197° |
| 2026-05-07 17:29 | 48.30856 | 11.70224 | 4183 ft | 229 kts | 183° |
| 2026-05-07 17:30 | 48.29272 | 11.70299 | 4947 ft | 226 kts | 173° |
| 2026-05-07 17:30 | 48.27833 | 11.71283 | 5397 ft | 242 kts | 143° |
| 2026-05-07 17:30 | 48.26518 | 11.73043 | 5648 ft | 265 kts | 142° |
| 2026-05-07 17:30 | 48.25001 | 11.74761 | 6165 ft | 278 kts | 147° |
| 2026-05-07 17:31 | 48.23384 | 11.76415 | 6866 ft | 283 kts | 149° |
| 2026-05-07 17:31 | 48.21804 | 11.78206 | 7581 ft | 289 kts | 135° |
| 2026-05-07 17:31 | 48.20728 | 11.80786 | 8267 ft | 297 kts | 109° |
| 2026-05-07 17:31 | 48.20471 | 11.83864 | 8947 ft | 302 kts | 83° |
| 2026-05-07 17:32 | 48.20999 | 11.86913 | 9634 ft | 305 kts | 71° |
| 2026-05-07 17:32 | 48.21670 | 11.89967 | 10263 ft | 312 kts | 71° |
| 2026-05-07 17:32 | 48.22379 | 11.93172 | 10420 ft | 335 kts | 71° |
| 2026-05-07 17:32 | 48.23135 | 11.96600 | 10552 ft | 357 kts | 71° |
| 2026-05-07 17:33 | 48.23929 | 12.00235 | 10758 ft | 374 kts | 71° |
| 2026-05-07 17:33 | 48.24735 | 12.03974 | 11262 ft | 380 kts | 71° |
| 2026-05-07 17:33 | 48.25544 | 12.07771 | 11858 ft | 383 kts | 72° |
| 2026-05-07 17:33 | 48.26349 | 12.11560 | 12458 ft | 387 kts | 71° |
| 2026-05-07 17:34 | 48.27174 | 12.15434 | 13056 ft | 390 kts | 71° |
| 2026-05-07 17:34 | 48.28009 | 12.19346 | 13634 ft | 394 kts | 71° |
| 2026-05-07 17:34 | 48.28850 | 12.23293 | 14168 ft | 398 kts | 71° |
| 2026-05-07 17:34 | 48.29685 | 12.27220 | 14677 ft | 401 kts | 71° |
| 2026-05-07 17:35 | 48.30539 | 12.31233 | 15218 ft | 404 kts | 71° |
| 2026-05-07 17:35 | 48.31395 | 12.35272 | 15766 ft | 407 kts | 71° |
| 2026-05-07 17:35 | 48.32264 | 12.39381 | 16327 ft | 409 kts | 71° |
| 2026-05-07 17:35 | 48.33136 | 12.43509 | 16862 ft | 412 kts | 71° |
| 2026-05-07 17:36 | 48.33989 | 12.47564 | 17371 ft | 415 kts | 71° |
| 2026-05-07 17:36 | 48.34847 | 12.51668 | 17867 ft | 417 kts | 71° |
| 2026-05-07 17:36 | 48.35720 | 12.55850 | 18344 ft | 420 kts | 71° |
| 2026-05-07 17:36 | 48.36598 | 12.60048 | 18798 ft | 423 kts | 71° |
| 2026-05-07 17:37 | 48.37484 | 12.64294 | 19229 ft | 425 kts | 71° |
| 2026-05-07 17:37 | 48.38370 | 12.68553 | 19673 ft | 427 kts | 71° |
| 2026-05-07 17:37 | 48.39273 | 12.72826 | 20101 ft | 429 kts | 69° |
| 2026-05-07 17:37 | 48.40611 | 12.76816 | 20520 ft | 427 kts | 52° |
| 2026-05-07 17:38 | 48.42548 | 12.80110 | 20933 ft | 426 kts | 42° |
| 2026-05-07 17:38 | 48.44663 | 12.83254 | 21364 ft | 428 kts | 41° |
| 2026-05-07 17:38 | 48.46798 | 12.86402 | 21801 ft | 430 kts | 41° |
| 2026-05-07 17:38 | 48.48949 | 12.89565 | 22224 ft | 433 kts | 41° |
| 2026-05-07 17:39 | 48.51103 | 12.92741 | 22658 ft | 435 kts | 41° |
| 2026-05-07 17:39 | 48.53267 | 12.95947 | 23084 ft | 437 kts | 42° |
| 2026-05-07 17:39 | 48.55443 | 12.99180 | 23514 ft | 439 kts | 42° |
| 2026-05-07 17:39 | 48.57627 | 13.02435 | 23892 ft | 442 kts | 42° |
| 2026-05-07 17:40 | 48.59821 | 13.05719 | 24219 ft | 445 kts | 42° |
| 2026-05-07 17:40 | 48.62020 | 13.09020 | 24561 ft | 447 kts | 42° |
| 2026-05-07 17:40 | 48.64232 | 13.12335 | 24907 ft | 449 kts | 42° |
| 2026-05-07 17:40 | 48.66460 | 13.15672 | 25189 ft | 452 kts | 42° |
| 2026-05-07 17:41 | 48.68702 | 13.19033 | 25483 ft | 456 kts | 42° |
| 2026-05-07 17:41 | 48.70930 | 13.22376 | 25792 ft | 458 kts | 42° |
| 2026-05-07 17:41 | 48.73196 | 13.25785 | 26138 ft | 460 kts | 42° |
| 2026-05-07 17:41 | 48.75470 | 13.29215 | 26477 ft | 462 kts | 43° |
| 2026-05-07 17:42 | 48.77758 | 13.32673 | 26815 ft | 465 kts | 43° |
| 2026-05-07 17:42 | 48.80053 | 13.36148 | 27135 ft | 467 kts | 43° |
| 2026-05-07 17:42 | 48.82359 | 13.39639 | 27451 ft | 469 kts | 43° |
| 2026-05-07 17:42 | 48.84746 | 13.43000 | 27745 ft | 468 kts | 34° |
| 2026-05-07 17:43 | 48.87460 | 13.45718 | 28027 ft | 468 kts | 30° |
| 2026-05-07 17:43 | 48.90219 | 13.48352 | 28309 ft | 469 kts | 29° |
| 2026-05-07 17:43 | 48.93000 | 13.50996 | 28592 ft | 471 kts | 29° |
| 2026-05-07 17:43 | 48.95754 | 13.53609 | 28870 ft | 472 kts | 29° |
| 2026-05-07 17:44 | 48.98544 | 13.56256 | 29237 ft | 471 kts | 29° |
| 2026-05-07 17:44 | 49.01320 | 13.58899 | 29619 ft | 470 kts | 30° |
| 2026-05-07 17:44 | 49.04088 | 13.61547 | 29986 ft | 469 kts | 30° |
| 2026-05-07 17:44 | 49.06852 | 13.64196 | 30290 ft | 468 kts | 30° |
| 2026-05-07 17:45 | 49.09612 | 13.66841 | 30559 ft | 468 kts | 30° |
| 2026-05-07 17:45 | 49.12375 | 13.69487 | 30808 ft | 469 kts | 30° |
| 2026-05-07 17:45 | 49.15108 | 13.72103 | 31053 ft | 469 kts | 30° |
| 2026-05-07 17:45 | 49.17875 | 13.74758 | 31287 ft | 470 kts | 30° |
| 2026-05-07 17:46 | 49.20647 | 13.77423 | 31522 ft | 470 kts | 30° |
| 2026-05-07 17:46 | 49.23424 | 13.80098 | 31758 ft | 471 kts | 30° |
| 2026-05-07 17:46 | 49.26193 | 13.82771 | 31998 ft | 471 kts | 30° |
| 2026-05-07 17:46 | 49.28967 | 13.85454 | 32232 ft | 472 kts | 30° |
| 2026-05-07 17:47 | 49.31743 | 13.88142 | 32465 ft | 472 kts | 30° |
| 2026-05-07 17:47 | 49.34525 | 13.90838 | 32709 ft | 472 kts | 30° |
| 2026-05-07 17:47 | 49.37303 | 13.93531 | 32940 ft | 472 kts | 31° |
| 2026-05-07 17:47 | 49.40047 | 13.96198 | 33119 ft | 474 kts | 31° |
| 2026-05-07 17:48 | 49.42844 | 13.98923 | 33263 ft | 476 kts | 31° |
| 2026-05-07 17:48 | 49.45642 | 14.01656 | 33456 ft | 477 kts | 31° |
| 2026-05-07 17:48 | 49.48453 | 14.04400 | 33676 ft | 477 kts | 31° |
| 2026-05-07 17:48 | 49.51255 | 14.07137 | 33897 ft | 477 kts | 31° |
| 2026-05-07 17:49 | 49.54059 | 14.09878 | 34122 ft | 477 kts | 31° |
| 2026-05-07 17:49 | 49.56861 | 14.12620 | 34303 ft | 477 kts | 31° |
| 2026-05-07 17:49 | 49.59664 | 14.15370 | 34469 ft | 478 kts | 31° |
| 2026-05-07 17:49 | 49.62470 | 14.18132 | 34641 ft | 478 kts | 31° |
| 2026-05-07 17:50 | 49.65278 | 14.20900 | 34838 ft | 478 kts | 31° |
| 2026-05-07 17:50 | 49.68045 | 14.23628 | 34974 ft | 479 kts | 31° |
| 2026-05-07 17:50 | 49.73663 | 14.29174 | 35013 ft | 478 kts | 31° |
| 2026-05-07 17:51 | 49.79266 | 14.34714 | 35012 ft | 478 kts | 32° |
| 2026-05-07 17:51 | 49.84857 | 14.40276 | 35004 ft | 477 kts | 32° |
| 2026-05-07 17:52 | 49.90452 | 14.45857 | 35003 ft | 477 kts | 32° |
| 2026-05-07 17:52 | 49.96000 | 14.51395 | 35005 ft | 478 kts | 32° |
| 2026-05-07 17:53 | 50.01592 | 14.56987 | 35015 ft | 478 kts | 32° |
| 2026-05-07 17:53 | 50.07180 | 14.62597 | 35021 ft | 478 kts | 32° |
| 2026-05-07 17:54 | 50.12779 | 14.68239 | 35023 ft | 478 kts | 32° |
| 2026-05-07 17:54 | 50.18333 | 14.73837 | 35020 ft | 478 kts | 32° |
| 2026-05-07 17:55 | 50.23919 | 14.79492 | 35017 ft | 479 kts | 32° |
| 2026-05-07 17:55 | 50.29501 | 14.85163 | 35011 ft | 478 kts | 32° |
| 2026-05-07 17:56 | 50.35082 | 14.90848 | 35004 ft | 478 kts | 32° |
| 2026-05-07 17:56 | 50.40656 | 14.96535 | 34974 ft | 479 kts | 33° |
| 2026-05-07 17:57 | 50.45300 | 15.01292 | 34970 ft | 480 kts | 33° |
| 2026-05-07 17:57 | 50.51795 | 15.07966 | 34972 ft | 480 kts | 33° |
| 2026-05-07 17:58 | 50.57391 | 15.13726 | 34984 ft | 481 kts | 33° |
| 2026-05-07 17:58 | 50.63007 | 15.19524 | 34996 ft | 482 kts | 33° |
| 2026-05-07 17:59 | 50.68628 | 15.25350 | 34998 ft | 483 kts | 33° |
| 2026-05-07 17:59 | 50.74235 | 15.31198 | 35004 ft | 483 kts | 35° |
| 2026-05-07 18:00 | 50.79098 | 15.38422 | 35005 ft | 480 kts | 54° |
| 2026-05-07 18:00 | 50.82321 | 15.47506 | 35002 ft | 476 kts | 70° |
| 2026-05-07 18:01 | 50.84799 | 15.57242 | 34998 ft | 477 kts | 70° |
| 2026-05-07 18:01 | 50.87286 | 15.67001 | 35008 ft | 478 kts | 70° |
| 2026-05-07 18:02 | 50.91018 | 15.81673 | 34997 ft | 479 kts | 71° |
| 2026-05-07 18:03 | 50.93412 | 15.91446 | 35012 ft | 477 kts | 76° |
| 2026-05-07 18:03 | 50.95295 | 16.01539 | 35018 ft | 477 kts | 77° |
| 2026-05-07 18:04 | 50.97068 | 16.11670 | 35025 ft | 476 kts | 77° |
| 2026-05-07 18:04 | 50.98827 | 16.21805 | 35035 ft | 476 kts | 77° |
| 2026-05-07 18:05 | 51.00614 | 16.31933 | 35013 ft | 476 kts | 77° |
| 2026-05-07 18:05 | 51.02399 | 16.42076 | 35018 ft | 477 kts | 78° |
| 2026-05-07 18:06 | 51.04171 | 16.52236 | 35026 ft | 477 kts | 78° |
| 2026-05-07 18:06 | 51.05928 | 16.62405 | 35031 ft | 477 kts | 78° |
| 2026-05-07 18:07 | 51.07672 | 16.72532 | 35036 ft | 477 kts | 78° |